LATI/TIA METAR and TAF weather

Enter ICAO airport designator
Station Type Date Time Source
LATI METAR 2022/06/30 13:20 UTC NOAA

LATI 301320Z 29008KT 220V320 9999 FEW040 33/22 Q1012 NOSIG


Station Type Date Time Source
LATI Decoded METAR 2022/06/30 13:20 UTC NOAA

Tirana, Albania (LATI) 41-20N 019-47E 90M
Jun 30, 2022 - 09:20 AM EDT / 2022.06.30 1320 UTC
Wind: from the WNW (290 degrees) at 9 MPH (8 KT) (direction variable):0
Visibility: greater than 7 mile(s):0
Sky conditions: mostly clear
Temperature: 91 F (33 C)
Heat index: 97.5 F (36.4 C):1
Dew Point: 71 F (22 C)
Relative Humidity: 52%
Pressure (altimeter): 29.88 in. Hg (1012 hPa)
ob: LATI 301320Z 29008KT 220V320 9999 FEW040 33/22 Q1012 NOSIG
cycle: 13

Station Type Date Time Source
LATI TAF 2022/06/30 12:37 UTC NOAA

TAF LATI 301100Z 3012/0112 30013KT CAVOK TX35/0112Z TN21/0103Z PROB40
TEMPO 3012/3017 FEW040TCU SCT070
BECMG 3017/3019 VRB03KT PROB30
TEMPO 3023/0105 1500 BCFG

Example: see airport list